Time;durP1;ratioP1;P1;durP2;ratioP2;P2;SDS_P1;SDS_P2;PMS_P1;PMS_P2;Temp;Humidity;BMP_temperature;BMP_pressure;BME280_temperature;BME280_humidity;BME280_pressure;Samples;Min_cycle;Max_cycle;Signal;HPM_P1;HPM_P2
2022/08/10 00:00:21;;;;;;;8.35;5.55;;;15.50;99.90;;;;;;5040588;28;20056;-69
2022/08/10 00:02:54;;;;;;;7.70;6.30;;;15.50;99.90;;;;;;5042942;28;20037;-69
2022/08/10 00:05:21;;;;;;;9.73;6.82;;;15.50;99.90;;;;;;5040352;28;20096;-69
2022/08/10 00:07:47;;;;;;;7.50;6.10;;;15.50;99.90;;;;;;5043127;28;20064;-69
2022/08/10 00:10:15;;;;;;;8.70;6.25;;;15.40;99.90;;;;;;5040949;28;20493;-69
2022/08/10 00:12:42;;;;;;;8.25;5.72;;;15.40;99.90;;;;;;5040361;28;20049;-69
2022/08/10 00:15:09;;;;;;;7.55;5.47;;;15.30;99.90;;;;;;5041173;28;20041;-69
2022/08/10 00:17:35;;;;;;;7.32;5.70;;;15.30;99.90;;;;;;5039735;28;20434;-70
2022/08/10 00:20:01;;;;;;;7.82;5.63;;;15.30;99.90;;;;;;5043005;28;20124;-68
2022/08/10 00:22:26;;;;;;;8.52;6.38;;;15.20;99.90;;;;;;5040989;28;20120;-69
2022/08/10 00:24:56;;;;;;;8.73;6.13;;;15.20;99.90;;;;;;5043174;28;20040;-69
2022/08/10 00:27:25;;;;;;;7.57;5.50;;;15.20;99.90;;;;;;5036374;28;20752;-69
2022/08/10 00:29:50;;;;;;;7.43;5.53;;;15.20;99.90;;;;;;5036838;28;20520;-69
2022/08/10 00:32:16;;;;;;;7.10;5.25;;;15.20;99.90;;;;;;5041607;28;20045;-69
2022/08/10 00:34:42;;;;;;;7.78;5.20;;;15.20;99.90;;;;;;5039169;28;20041;-69
2022/08/10 00:37:08;;;;;;;6.60;5.25;;;15.10;99.90;;;;;;5041338;28;20052;-69
2022/08/10 00:39:33;;;;;;;7.03;4.78;;;15.10;99.90;;;;;;5043252;28;20515;-69
2022/08/10 00:41:59;;;;;;;7.57;5.53;;;15.10;99.90;;;;;;5039188;28;20037;-69
2022/08/10 00:44:25;;;;;;;8.82;5.43;;;15.10;99.90;;;;;;5042608;28;20223;-69
2022/08/10 00:46:50;;;;;;;7.45;5.25;;;15.20;99.90;;;;;;5040516;28;20116;-69
2022/08/10 00:49:16;;;;;;;6.70;5.18;;;15.10;99.90;;;;;;5039798;28;20448;-69
2022/08/10 00:51:42;;;;;;;7.72;4.97;;;15.10;99.90;;;;;;5043834;28;20052;-69
2022/08/10 00:54:08;;;;;;;9.00;5.55;;;15.10;99.90;;;;;;5041274;28;20444;-69
2022/08/10 00:56:34;;;;;;;7.60;5.05;;;15.10;99.90;;;;;;5042186;28;20033;-69
2022/08/10 00:59:00;;;;;;;7.18;4.97;;;15.10;99.90;;;;;;5040693;28;20045;-69
2022/08/10 01:01:26;;;;;;;6.47;4.97;;;15.10;99.90;;;;;;5040640;28;20110;-68
2022/08/10 01:03:51;;;;;;;7.18;5.28;;;15.20;99.90;;;;;;5042820;28;20049;-69
2022/08/10 01:06:38;;;;;;;7.85;5.03;;;15.10;99.90;;;;;;5040451;28;20037;-69
2022/08/10 01:09:29;;;;;;;6.00;4.55;;;15.10;99.90;;;;;;5039114;28;20045;-69
2022/08/10 01:12:03;;;;;;;6.82;4.75;;;15.10;99.90;;;;;;5038597;28;20082;-69
2022/08/10 01:14:40;;;;;;;7.40;5.28;;;15.00;99.90;;;;;;5042292;28;20044;-68
2022/08/10 01:17:24;;;;;;;9.95;4.93;;;15.00;99.90;;;;;;5037772;28;20069;-69
2022/08/10 01:19:54;;;;;;;6.20;4.78;;;15.00;99.90;;;;;;5036230;28;20043;-69
2022/08/10 01:22:48;;;;;;;7.30;4.47;;;15.00;99.90;;;;;;5041833;28;20097;-69
2022/08/10 01:25:25;;;;;;;6.10;4.00;;;14.90;99.90;;;;;;5035229;28;20038;-68
2022/08/10 01:28:16;;;;;;;6.00;4.35;;;14.90;99.90;;;;;;5038503;28;20072;-68
2022/08/10 01:30:44;;;;;;;5.55;4.50;;;14.90;99.90;;;;;;5036076;28;20049;-68
2022/08/10 01:33:31;;;;;;;7.20;4.43;;;14.90;99.90;;;;;;5034036;28;20053;-69
2022/08/10 01:36:00;;;;;;;7.07;4.85;;;14.80;99.90;;;;;;5039439;28;20416;-69
2022/08/10 01:38:33;;;;;;;6.18;4.63;;;14.80;99.90;;;;;;5040957;28;20056;-69
2022/08/10 01:41:23;;;;;;;7.80;4.50;;;14.70;99.90;;;;;;5040484;28;20038;-69
2022/08/10 01:44:15;;;;;;;6.28;4.28;;;14.80;99.90;;;;;;5037736;28;20443;-70
2022/08/10 01:46:47;;;;;;;7.18;5.10;;;14.70;99.90;;;;;;5036235;28;20060;-70
2022/08/10 01:49:16;;;;;;;6.70;4.68;;;14.70;99.90;;;;;;5039374;28;20045;-69
2022/08/10 01:51:48;;;;;;;6.50;4.88;;;14.70;99.90;;;;;;5039260;28;20069;-69
2022/08/10 01:54:18;;;;;;;6.28;4.95;;;14.70;99.90;;;;;;5041351;28;20045;-69
2022/08/10 01:56:52;;;;;;;5.55;4.15;;;14.70;99.90;;;;;;5040296;28;20078;-69
2022/08/10 01:59:33;;;;;;;6.93;4.53;;;14.70;99.90;;;;;;5040071;28;20095;-69
2022/08/10 02:02:04;;;;;;;6.80;4.82;;;14.70;99.90;;;;;;5042182;28;20061;-69
2022/08/10 02:04:34;;;;;;;5.18;4.38;;;14.60;99.90;;;;;;5039914;28;20052;-68
2022/08/10 02:07:02;;;;;;;5.88;4.25;;;14.60;99.90;;;;;;5042024;28;20469;-69
2022/08/10 02:09:35;;;;;;;5.65;3.65;;;14.60;99.90;;;;;;5040578;28;20141;-69
2022/08/10 02:12:07;;;;;;;5.60;4.07;;;14.70;99.90;;;;;;5040385;28;20044;-68
2022/08/10 02:14:46;;;;;;;6.88;4.70;;;14.60;99.90;;;;;;5035858;28;20523;-68
2022/08/10 02:17:27;;;;;;;6.00;4.30;;;14.60;99.90;;;;;;5035143;28;20064;-68
2022/08/10 02:19:56;;;;;;;5.10;3.75;;;14.60;99.90;;;;;;5040286;28;20069;-69
2022/08/10 02:22:22;;;;;;;5.32;4.15;;;14.60;99.90;;;;;;5039633;28;20084;-68
2022/08/10 02:24:50;;;;;;;5.18;3.80;;;14.60;99.90;;;;;;5039877;28;20388;-68
2022/08/10 02:27:17;;;;;;;6.10;4.25;;;14.60;99.90;;;;;;5039645;28;20128;-69
2022/08/10 02:29:45;;;;;;;6.60;4.78;;;14.60;99.90;;;;;;5040786;28;20030;-68
2022/08/10 02:32:12;;;;;;;6.53;4.38;;;14.50;99.90;;;;;;5041431;28;20083;-68
2022/08/10 02:34:39;;;;;;;6.95;4.25;;;14.50;99.90;;;;;;5039075;28;20128;-69
2022/08/10 02:37:06;;;;;;;5.85;3.97;;;14.50;99.90;;;;;;5042513;28;20056;-69
2022/08/10 02:39:35;;;;;;;6.70;4.10;;;14.50;99.90;;;;;;5039495;28;20084;-68
2022/08/10 02:42:11;;;;;;;6.20;3.90;;;14.50;99.90;;;;;;5033903;28;20049;-68
2022/08/10 02:44:49;;;;;;;5.20;4.10;;;14.50;99.90;;;;;;5037061;28;20582;-68
2022/08/10 02:47:29;;;;;;;5.28;3.83;;;14.50;99.90;;;;;;5044001;28;20041;-68
2022/08/10 02:50:07;;;;;;;7.20;3.95;;;14.40;99.90;;;;;;5041358;28;20082;-69
2022/08/10 02:52:46;;;;;;;5.38;3.90;;;14.40;99.90;;;;;;5039023;28;20045;-68
2022/08/10 02:55:28;;;;;;;6.30;3.80;;;14.40;99.90;;;;;;5042538;28;20048;-68
2022/08/10 02:57:56;;;;;;;5.45;3.97;;;14.50;99.90;;;;;;5045849;28;20048;-69
2022/08/10 03:00:24;;;;;;;6.20;4.05;;;14.40;99.90;;;;;;5042087;28;20041;-68
2022/08/10 03:02:52;;;;;;;6.10;4.10;;;14.40;99.90;;;;;;5041351;28;20049;-69
2022/08/10 03:05:20;;;;;;;5.97;4.20;;;14.40;99.90;;;;;;5045498;28;20046;-68
2022/08/10 03:07:51;;;;;;;6.25;4.03;;;14.30;99.90;;;;;;5042285;28;20037;-68
2022/08/10 03:10:21;;;;;;;7.05;4.22;;;14.40;99.90;;;;;;5043087;28;20041;-69
2022/08/10 03:12:51;;;;;;;6.68;4.57;;;14.40;99.90;;;;;;5043575;28;20049;-68
2022/08/10 03:15:19;;;;;;;5.97;4.32;;;14.30;99.90;;;;;;5044921;28;20398;-69
2022/08/10 03:17:46;;;;;;;5.38;3.88;;;14.30;99.90;;;;;;5042907;28;20087;-69
2022/08/10 03:20:13;;;;;;;5.60;4.05;;;14.30;99.90;;;;;;5044132;28;20057;-68
2022/08/10 03:22:42;;;;;;;6.20;4.05;;;14.30;99.90;;;;;;5043102;28;20041;-69
2022/08/10 03:25:10;;;;;;;5.38;4.00;;;14.30;99.90;;;;;;5043900;28;20049;-68
2022/08/10 03:27:38;;;;;;;5.97;3.63;;;14.20;99.90;;;;;;5042870;28;20045;-68
2022/08/10 03:30:04;;;;;;;4.70;3.70;;;14.20;99.90;;;;;;5042448;28;20116;-68
2022/08/10 03:32:32;;;;;;;6.53;4.05;;;14.20;99.90;;;;;;5043313;28;20037;-69
2022/08/10 03:34:59;;;;;;;6.20;3.53;;;14.20;99.90;;;;;;5041499;28;20424;-69
2022/08/10 03:37:26;;;;;;;5.07;3.72;;;14.20;99.90;;;;;;5043489;28;20076;-68
2022/08/10 03:39:53;;;;;;;5.53;3.97;;;14.30;99.90;;;;;;5042061;28;20042;-68
2022/08/10 03:42:20;;;;;;;5.97;4.15;;;14.10;99.90;;;;;;5037013;28;20042;-68
2022/08/10 03:44:48;;;;;;;5.78;4.07;;;14.20;99.90;;;;;;5044537;28;20112;-68
2022/08/10 03:47:16;;;;;;;6.68;4.40;;;14.20;99.90;;;;;;5042405;28;20041;-69
2022/08/10 03:49:42;;;;;;;7.10;4.80;;;14.10;99.90;;;;;;5042114;28;20047;-69
2022/08/10 03:52:09;;;;;;;6.47;4.55;;;14.20;99.90;;;;;;5040392;28;20083;-69
2022/08/10 03:54:36;;;;;;;6.82;4.25;;;14.10;99.90;;;;;;5043955;28;20045;-69
2022/08/10 03:57:05;;;;;;;7.22;4.80;;;14.10;99.90;;;;;;5041923;28;20504;-69
2022/08/10 03:59:31;;;;;;;7.18;4.75;;;14.10;99.90;;;;;;5040990;28;20087;-69
2022/08/10 04:01:58;;;;;;;6.97;4.80;;;14.10;99.90;;;;;;5042112;28;20033;-69
2022/08/10 04:04:25;;;;;;;7.53;4.65;;;14.00;99.90;;;;;;5040440;28;20128;-70
2022/08/10 04:06:51;;;;;;;7.18;5.22;;;14.00;99.90;;;;;;5041592;28;20045;-69
2022/08/10 04:09:17;;;;;;;8.48;4.63;;;14.00;99.90;;;;;;5045274;28;20045;-70
2022/08/10 04:11:43;;;;;;;6.00;5.05;;;14.00;99.90;;;;;;5036555;28;20034;-69
2022/08/10 04:14:08;;;;;;;6.43;4.82;;;14.00;99.90;;;;;;5044239;28;20439;-70
2022/08/10 04:16:34;;;;;;;6.32;4.20;;;14.00;99.90;;;;;;5042124;28;20112;-70
2022/08/10 04:19:00;;;;;;;6.75;4.68;;;14.00;99.90;;;;;;5040414;28;20478;-70
2022/08/10 04:21:30;;;;;;;6.47;4.45;;;14.00;99.90;;;;;;5043255;28;20059;-69
2022/08/10 04:23:57;;;;;;;6.18;4.82;;;14.10;99.90;;;;;;5042545;28;20481;-69
2022/08/10 04:26:24;;;;;;;6.57;4.82;;;14.10;99.90;;;;;;5042718;28;20060;-70
2022/08/10 04:28:49;;;;;;;7.13;4.88;;;14.10;99.90;;;;;;5041779;28;20152;-70
2022/08/10 04:31:17;;;;;;;6.88;4.78;;;14.10;99.90;;;;;;5044580;28;20047;-70
2022/08/10 04:33:48;;;;;;;6.03;4.10;;;14.10;99.90;;;;;;5035570;28;20124;-69
2022/08/10 04:36:15;;;;;;;5.63;4.38;;;14.10;99.90;;;;;;5036212;28;20057;-69
2022/08/10 04:38:42;;;;;;;6.28;4.38;;;14.10;99.90;;;;;;5044530;28;20041;-70
2022/08/10 04:41:08;;;;;;;6.07;4.43;;;14.10;99.90;;;;;;5038137;28;20495;-70
2022/08/10 04:43:34;;;;;;;6.28;4.53;;;14.10;99.90;;;;;;5040451;28;20548;-70
2022/08/10 04:46:00;;;;;;;6.63;4.70;;;14.10;99.90;;;;;;5043349;28;20033;-69
2022/08/10 04:48:26;;;;;;;6.82;4.65;;;14.10;99.90;;;;;;5040156;28;20040;-69
2022/08/10 04:50:52;;;;;;;6.15;4.57;;;14.10;99.90;;;;;;5041754;28;20030;-70
2022/08/10 04:53:17;;;;;;;6.25;4.47;;;14.20;99.90;;;;;;5043286;28;20063;-70
2022/08/10 04:55:43;;;;;;;6.97;4.00;;;14.20;99.90;;;;;;5040652;28;20041;-70
2022/08/10 04:58:09;;;;;;;7.35;4.70;;;14.20;99.90;;;;;;5041992;28;20581;-69
2022/08/10 05:00:34;;;;;;;6.90;4.70;;;14.30;99.90;;;;;;5038243;28;20136;-69
2022/08/10 05:03:00;;;;;;;5.63;3.97;;;14.30;99.90;;;;;;5039217;28;20052;-67
2022/08/10 05:05:25;;;;;;;7.50;4.38;;;14.30;99.90;;;;;;5041706;28;20052;-68
2022/08/10 05:07:51;;;;;;;7.13;4.28;;;14.40;99.90;;;;;;5041072;28;20045;-69
2022/08/10 05:10:17;;;;;;;5.38;3.78;;;14.40;99.90;;;;;;5041668;28;20477;-70
2022/08/10 05:12:42;;;;;;;6.50;4.10;;;14.40;99.90;;;;;;5042855;28;20094;-69
2022/08/10 05:15:10;;;;;;;6.18;4.60;;;14.50;99.90;;;;;;5039429;28;20057;-69
2022/08/10 05:17:37;;;;;;;8.10;5.03;;;14.50;99.90;;;;;;5043654;28;20041;-70
2022/08/10 05:20:04;;;;;;;6.90;5.15;;;14.50;99.90;;;;;;5038062;28;20049;-67
2022/08/10 05:22:30;;;;;;;7.70;4.72;;;14.60;99.90;;;;;;5042785;28;20033;-67
2022/08/10 05:24:56;;;;;;;7.07;5.20;;;14.60;99.90;;;;;;5039220;28;20132;-67
2022/08/10 05:27:21;;;;;;;7.68;5.13;;;14.70;99.90;;;;;;5042066;28;20045;-70
2022/08/10 05:29:47;;;;;;;8.10;5.30;;;14.70;99.90;;;;;;5041373;28;20029;-68
2022/08/10 05:32:13;;;;;;;8.02;5.32;;;14.80;99.90;;;;;;5040518;28;20045;-68
2022/08/10 05:34:38;;;;;;;9.05;6.20;;;14.90;99.90;;;;;;5038226;28;20037;-67
2022/08/10 05:37:05;;;;;;;9.68;6.82;;;14.90;99.90;;;;;;5040876;28;20080;-68
2022/08/10 05:39:33;;;;;;;10.45;6.50;;;15.00;99.90;;;;;;5038907;28;20050;-68
2022/08/10 05:42:00;;;;;;;10.63;7.13;;;15.00;99.90;;;;;;5035647;28;20385;-68
2022/08/10 05:44:26;;;;;;;10.27;6.85;;;15.20;99.90;;;;;;5041362;28;20111;-68
2022/08/10 05:46:52;;;;;;;9.98;6.97;;;15.20;99.90;;;;;;5040528;28;20048;-68
2022/08/10 05:49:17;;;;;;;9.27;6.75;;;15.30;99.90;;;;;;5037080;28;20396;-68
2022/08/10 05:51:43;;;;;;;9.00;7.30;;;15.40;99.90;;;;;;5039473;28;20044;-68
2022/08/10 05:54:18;;;;;;;11.30;7.80;;;15.50;99.90;;;;;;5039118;28;20454;-69
2022/08/10 05:56:45;;;;;;;11.48;7.25;;;15.60;99.90;;;;;;5040328;28;20431;-69
2022/08/10 05:59:14;;;;;;;10.90;7.28;;;15.70;99.90;;;;;;5040482;28;20103;-68
2022/08/10 06:01:45;;;;;;;12.02;7.35;;;15.80;99.90;;;;;;5040332;28;20047;-68
2022/08/10 06:04:28;;;;;;;10.57;7.53;;;15.90;99.90;;;;;;5038289;28;20048;-68
2022/08/10 06:06:54;;;;;;;10.73;7.93;;;16.00;99.90;;;;;;5041572;28;20037;-69
2022/08/10 06:09:22;;;;;;;11.13;7.25;;;16.10;99.90;;;;;;5039880;28;20041;-68
2022/08/10 06:11:50;;;;;;;12.02;7.43;;;16.20;99.90;;;;;;5041635;28;20080;-68
2022/08/10 06:17:02;;;;;;;10.57;6.70;;;16.30;99.90;;;;;;5036773;28;20493;-68
2022/08/10 06:19:29;;;;;;;10.98;7.63;;;16.40;99.90;;;;;;5037470;28;20041;-69
2022/08/10 06:22:00;;;;;;;10.65;8.00;;;16.50;99.90;;;;;;5041503;28;20044;-69
2022/08/10 06:24:30;;;;;;;10.32;7.53;;;16.70;99.90;;;;;;5047154;28;20090;-69
2022/08/10 06:26:56;;;;;;;9.93;7.20;;;16.70;99.90;;;;;;5041462;28;20049;-69
2022/08/10 06:29:23;;;;;;;10.48;7.05;;;16.70;99.90;;;;;;5045867;28;20052;-69
2022/08/10 06:31:51;;;;;;;9.13;6.95;;;16.80;99.90;;;;;;5043448;28;20065;-69
2022/08/10 06:34:47;;;;;;;10.20;7.00;;;16.90;99.90;;;;;;5041670;28;20385;-69
2022/08/10 06:37:16;;;;;;;8.80;6.65;;;17.00;99.90;;;;;;5043563;28;20185;-68
2022/08/10 06:39:43;;;;;;;8.73;6.60;;;17.20;99.90;;;;;;5043412;28;20087;-69
2022/08/10 06:42:22;;;;;;;8.40;5.53;;;17.30;99.90;;;;;;5043823;28;20454;-69
2022/08/10 06:44:54;;;;;;;9.40;6.65;;;17.30;99.90;;;;;;5037873;28;20053;-69
2022/08/10 06:47:24;;;;;;;9.25;5.93;;;17.40;99.90;;;;;;5045932;28;20072;-69
2022/08/10 06:49:54;;;;;;;7.30;5.65;;;17.50;99.90;;;;;;5038233;28;20121;-69
2022/08/10 06:52:21;;;;;;;8.55;5.35;;;17.60;99.90;;;;;;5039486;28;20087;-68
2022/08/10 06:54:50;;;;;;;6.65;5.10;;;17.80;99.90;;;;;;5038334;28;20080;-69
2022/08/10 06:57:19;;;;;;;7.50;4.85;;;17.80;99.90;;;;;;5039099;28;20081;-69
2022/08/10 06:59:46;;;;;;;7.68;5.07;;;17.90;99.90;;;;;;5046307;28;20405;-69
2022/08/10 07:02:24;;;;;;;7.80;4.78;;;17.90;99.90;;;;;;5041833;28;20046;-69
2022/08/10 07:05:20;;;;;;;7.57;4.35;;;18.10;99.90;;;;;;5038311;28;20048;-69
2022/08/10 07:07:49;;;;;;;8.57;4.75;;;18.20;99.90;;;;;;5038321;28;20409;-69
2022/08/10 07:10:21;;;;;;;6.13;3.80;;;18.40;99.90;;;;;;5037644;28;20041;-69
2022/08/10 07:12:49;;;;;;;5.88;3.90;;;18.40;99.90;;;;;;5037980;28;20061;-68
2022/08/10 07:15:17;;;;;;;5.28;3.60;;;18.50;99.90;;;;;;5036881;28;20049;-69
2022/08/10 07:17:43;;;;;;;6.10;3.72;;;18.60;99.90;;;;;;5037181;28;20045;-69
2022/08/10 07:20:15;;;;;;;5.38;3.35;;;18.70;99.90;;;;;;5043636;28;20381;-68
2022/08/10 07:22:42;;;;;;;5.60;3.35;;;18.80;99.90;;;;;;5040533;28;20539;-69
2022/08/10 07:25:10;;;;;;;7.00;3.75;;;18.90;99.90;;;;;;5044904;28;20522;-69
2022/08/10 07:27:38;;;;;;;5.10;3.22;;;19.00;99.90;;;;;;5041652;28;20041;-69
2022/08/10 07:30:05;;;;;;;7.57;3.33;;;19.10;99.90;;;;;;5042451;28;20049;-69
2022/08/10 07:32:32;;;;;;;5.43;3.08;;;19.30;99.90;;;;;;5042165;28;20048;-69
2022/08/10 07:34:58;;;;;;;7.38;3.55;;;19.50;99.90;;;;;;5042836;28;20056;-69
2022/08/10 07:37:26;;;;;;;4.57;3.25;;;19.70;99.90;;;;;;5042998;28;20045;-69
2022/08/10 07:39:53;;;;;;;3.78;3.00;;;20.00;99.90;;;;;;5042487;28;20048;-69
2022/08/10 07:42:21;;;;;;;4.30;3.15;;;20.80;99.90;;;;;;5040964;28;20390;-69
2022/08/10 07:44:49;;;;;;;5.53;3.10;;;22.00;99.90;;;;;;5044408;28;20033;-70
2022/08/10 07:47:20;;;;;;;4.32;2.65;;;23.20;99.90;;;;;;5042686;28;20042;-70
2022/08/10 07:49:48;;;;;;;4.18;2.70;;;24.30;99.90;;;;;;5034964;28;20598;-69
2022/08/10 07:52:13;;;;;;;4.20;2.35;;;25.30;99.90;;;;;;5044713;28;20049;-70
2022/08/10 07:54:45;;;;;;;4.00;2.35;;;26.10;99.90;;;;;;5040959;28;20045;-70
2022/08/10 07:57:22;;;;;;;4.95;2.33;;;26.70;99.90;;;;;;5037621;28;20129;-70
2022/08/10 07:59:54;;;;;;;4.55;2.50;;;27.20;99.90;;;;;;5042423;28;20059;-70
2022/08/10 08:02:26;;;;;;;3.45;2.00;;;27.70;99.90;;;;;;5043336;28;20042;-70
2022/08/10 08:04:52;;;;;;;4.60;2.10;;;28.30;99.40;;;;;;5038191;28;20137;-70
2022/08/10 08:07:19;;;;;;;3.90;2.22;;;28.70;98.50;;;;;;5039519;28;20049;-70
2022/08/10 08:09:48;;;;;;;4.63;2.22;;;29.20;97.60;;;;;;5043817;28;20546;-70
2022/08/10 08:12:15;;;;;;;2.92;1.77;;;29.50;96.70;;;;;;5039847;28;20053;-70
2022/08/10 08:14:43;;;;;;;3.90;2.03;;;29.80;96.80;;;;;;5044315;28;20043;-70
2022/08/10 08:17:09;;;;;;;3.63;1.73;;;30.30;95.40;;;;;;5041557;28;20037;-70
2022/08/10 08:19:36;;;;;;;3.85;2.00;;;30.60;94.80;;;;;;5041063;28;20056;-70
2022/08/10 08:22:04;;;;;;;3.72;1.80;;;30.90;93.80;;;;;;5040973;28;20065;-70
2022/08/10 08:24:33;;;;;;;3.33;2.00;;;31.20;93.80;;;;;;5042470;28;20480;-70
2022/08/10 08:27:01;;;;;;;3.80;1.80;;;31.20;94.20;;;;;;5041124;28;20049;-70
2022/08/10 08:29:28;;;;;;;3.28;1.67;;;31.20;93.80;;;;;;5042997;28;20068;-70
2022/08/10 08:31:54;;;;;;;3.45;1.70;;;31.50;93.70;;;;;;5040701;28;20048;-70
2022/08/10 08:34:21;;;;;;;3.38;1.52;;;31.90;93.40;;;;;;5037750;28;20060;-70
2022/08/10 08:36:48;;;;;;;3.58;1.80;;;31.90;93.00;;;;;;5041062;28;20033;-70
2022/08/10 08:39:15;;;;;;;4.45;1.70;;;31.70;92.90;;;;;;5037700;28;20493;-70
2022/08/10 08:41:46;;;;;;;3.00;1.60;;;31.80;92.90;;;;;;5042024;28;20497;-70
2022/08/10 08:44:21;;;;;;;4.18;1.80;;;31.90;92.70;;;;;;5040414;28;20041;-70
2022/08/10 08:47:05;;;;;;;4.55;1.85;;;32.10;91.90;;;;;;5041193;28;20560;-70
2022/08/10 08:49:49;;;;;;;3.03;1.63;;;32.00;91.60;;;;;;5033448;28;20049;-70
2022/08/10 08:52:46;;;;;;;3.47;2.08;;;32.30;92.10;;;;;;5041153;28;20045;-70
2022/08/10 08:55:18;;;;;;;;;;;32.70;91.20;;;;;;5039195;28;20493;-70
2022/08/10 08:58:02;;;;;;;4.63;2.10;;;32.70;91.00;;;;;;5040862;28;20030;-70
2022/08/10 09:01:21;;;;;;;3.45;1.70;;;33.00;90.60;;;;;;5034818;28;20054;-70
2022/08/10 09:04:00;;;;;;;4.35;1.80;;;33.00;90.90;;;;;;5024919;28;20065;-70
2022/08/10 09:06:39;;;;;;;4.22;1.80;;;32.80;91.00;;;;;;5036717;28;20037;-70
2022/08/10 09:09:26;;;;;;;3.53;1.85;;;32.90;91.60;;;;;;5038523;28;20409;-70
2022/08/10 09:12:29;;;;;;;4.53;1.70;;;33.00;90.60;;;;;;5038899;28;20045;-70
2022/08/10 09:14:57;;;;;;;3.55;1.67;;;33.10;90.70;;;;;;5034226;28;20107;-70
2022/08/10 09:17:34;;;;;;;3.67;1.52;;;33.00;90.60;;;;;;5034982;28;20045;-71
2022/08/10 09:20:12;;;;;;;4.15;1.67;;;33.10;91.30;;;;;;5034669;28;20045;-71
2022/08/10 09:22:49;;;;;;;3.13;1.70;;;33.40;91.40;;;;;;5039824;28;20044;-70
2022/08/10 09:25:23;;;;;;;4.72;1.70;;;33.50;90.30;;;;;;5041746;28;21209;-70
2022/08/10 09:28:01;;;;;;;3.45;1.50;;;33.80;89.40;;;;;;5039620;28;20091;-70
2022/08/10 09:30:50;;;;;;;4.05;1.77;;;34.00;90.00;;;;;;5035825;28;20049;-70
2022/08/10 09:33:24;;;;;;;3.15;1.67;;;34.20;88.80;;;;;;5040098;28;20048;-70
2022/08/10 09:36:11;;;;;;;3.55;1.77;;;34.10;89.40;;;;;;5035054;28;20378;-70
2022/08/10 09:39:14;;;;;;;3.78;1.80;;;34.00;88.70;;;;;;5038878;28;20069;-70
2022/08/10 09:42:21;;;;;;;3.67;1.80;;;34.00;89.10;;;;;;5039772;28;20556;-70
2022/08/10 09:45:13;;;;;;;4.38;1.90;;;33.70;88.80;;;;;;5042063;28;20056;-70
2022/08/10 09:48:00;;;;;;;3.13;1.52;;;33.60;89.30;;;;;;5039815;28;20396;-70
2022/08/10 09:50:55;;;;;;;3.95;1.70;;;33.60;89.30;;;;;;5028856;28;20424;-70
2022/08/10 09:53:53;;;;;;;3.57;1.90;;;33.80;87.10;;;;;;5035252;28;20037;-70
2022/08/10 09:56:22;;;;;;;3.85;1.50;;;33.90;87.50;;;;;;5033793;28;20054;-70
2022/08/10 09:58:57;;;;;;;3.30;1.60;;;33.60;90.00;;;;;;5034606;28;20468;-70
2022/08/10 10:01:40;;;;;;;3.50;1.55;;;33.90;90.00;;;;;;5036929;28;20549;-70
2022/08/10 10:04:27;;;;;;;2.72;1.55;;;34.20;89.30;;;;;;5036717;28;20042;-70
2022/08/10 10:07:03;;;;;;;4.30;2.00;;;34.30;87.90;;;;;;5031250;28;20046;-70
2022/08/10 10:09:42;;;;;;;3.85;1.60;;;34.50;87.60;;;;;;5039131;28;20060;-70
2022/08/10 10:12:20;;;;;;;3.95;2.03;;;34.80;88.10;;;;;;5041371;28;20049;-70
2022/08/10 10:15:19;;;;;;;3.85;2.00;;;34.80;88.70;;;;;;5034902;28;20050;-70
2022/08/10 10:17:44;;;;;;;3.08;1.90;;;34.70;86.80;;;;;;5035096;28;20136;-70
2022/08/10 10:20:15;;;;;;;3.63;1.85;;;34.40;84.10;;;;;;5042231;28;20140;-70
2022/08/10 10:22:57;;;;;;;3.42;1.60;;;34.10;88.70;;;;;;5037971;28;20099;-70
2022/08/10 10:25:40;;;;;;;3.13;1.80;;;34.20;86.80;;;;;;5037440;28;20049;-70
2022/08/10 10:28:21;;;;;;;4.32;1.98;;;34.40;87.40;;;;;;5041453;28;20132;-70
2022/08/10 10:31:15;;;;;;;4.78;2.05;;;34.50;88.40;;;;;;5036747;28;20044;-70
2022/08/10 10:33:58;;;;;;;3.67;2.00;;;34.70;86.90;;;;;;5034295;28;20037;-70
2022/08/10 10:36:28;;;;;;;4.47;1.77;;;34.60;89.30;;;;;;5041024;28;20053;-70
2022/08/10 10:38:58;;;;;;;3.35;1.88;;;34.80;87.90;;;;;;5040371;28;20059;-70
2022/08/10 10:42:10;;;;;;;4.22;1.85;;;35.10;87.00;;;;;;5039402;28;20437;-70
2022/08/10 10:44:42;;;;;;;7.55;2.17;;;35.10;86.20;;;;;;5032305;28;20049;-70
2022/08/10 10:47:36;;;;;;;4.05;1.85;;;34.90;83.70;;;;;;5037100;28;20054;-70
2022/08/10 10:50:29;;;;;;;2.72;1.70;;;34.90;85.40;;;;;;5039892;28;20175;-70
2022/08/10 10:53:12;;;;;;;3.92;2.00;;;34.60;84.70;;;;;;5037479;28;20151;-70
2022/08/10 10:56:01;;;;;;;2.90;1.60;;;34.60;86.10;;;;;;5033930;28;20053;-70
2022/08/10 10:58:47;;;;;;;3.10;2.10;;;34.80;87.10;;;;;;5038746;28;20115;-70
2022/08/10 11:01:33;;;;;;;3.17;1.83;;;34.70;87.30;;;;;;5035627;28;20084;-70
2022/08/10 11:04:12;;;;;;;4.40;2.13;;;34.60;86.30;;;;;;5039881;28;20068;-70
2022/08/10 11:07:26;;;;;;;3.22;1.90;;;34.40;86.80;;;;;;5035284;28;20041;-70
2022/08/10 11:09:58;;;;;;;3.88;2.17;;;34.30;85.70;;;;;;5041217;28;20055;-71
2022/08/10 11:12:51;;;;;;;3.95;2.10;;;34.10;87.60;;;;;;5044804;28;20053;-70
2022/08/10 11:15:19;;;;;;;4.40;2.08;;;34.20;87.40;;;;;;5039275;28;20103;-70
2022/08/10 11:18:06;;;;;;;5.15;2.30;;;34.20;88.40;;;;;;5043447;28;20554;-70
2022/08/10 11:20:35;;;;;;;4.18;2.13;;;34.20;87.20;;;;;;5045158;28;20502;-70
2022/08/10 11:23:30;;;;;;;4.40;2.00;;;33.70;86.90;;;;;;5037037;28;20045;-70
2022/08/10 11:26:02;;;;;;;5.95;2.22;;;33.90;88.10;;;;;;5042456;28;20045;-70
2022/08/10 11:28:47;;;;;;;6.78;2.28;;;34.00;85.70;;;;;;5040518;28;20037;-70
2022/08/10 11:31:32;;;;;;;4.65;1.70;;;34.00;88.40;;;;;;5039538;28;20053;-70
2022/08/10 11:34:36;;;;;;;4.45;2.38;;;34.30;85.40;;;;;;5040815;28;20052;-70
2022/08/10 11:37:18;;;;;;;3.95;2.00;;;34.30;84.70;;;;;;5027839;28;20050;-70
2022/08/10 11:39:49;;;;;;;3.90;2.22;;;34.10;86.40;;;;;;5040425;28;20127;-70
2022/08/10 11:42:39;;;;;;;4.25;2.10;;;34.20;85.50;;;;;;5041442;28;20084;-70
2022/08/10 11:45:07;;;;;;;4.15;1.95;;;34.10;85.20;;;;;;5037228;28;20493;-70
2022/08/10 11:47:43;;;;;;;3.22;1.92;;;33.70;86.60;;;;;;5045447;28;20029;-70
2022/08/10 11:50:22;;;;;;;3.67;1.77;;;33.60;84.80;;;;;;5040777;28;20048;-70
2022/08/10 11:53:08;;;;;;;4.40;2.28;;;33.60;86.50;;;;;;5042864;28;20456;-70
2022/08/10 11:55:35;;;;;;;4.95;2.30;;;33.60;87.30;;;;;;5037310;28;20120;-70
2022/08/10 12:01:07;;;;;;;4.32;2.13;;;33.40;86.80;;;;;;5003281;28;20573;-69
2022/08/10 12:03:36;;;;;;;3.47;2.03;;;33.50;87.30;;;;;;5042394;28;20045;-70
2022/08/10 12:06:04;;;;;;;3.80;1.60;;;33.30;86.10;;;;;;5041568;28;20035;-70
2022/08/10 12:08:31;;;;;;;4.25;2.00;;;33.50;88.40;;;;;;5044720;28;20033;-69
2022/08/10 12:10:58;;;;;;;4.38;2.10;;;33.70;89.50;;;;;;5037779;28;20033;-69
2022/08/10 12:13:45;;;;;;;5.38;2.47;;;33.70;88.60;;;;;;5037062;28;20472;-70
2022/08/10 12:16:22;;;;;;;4.95;2.50;;;33.80;87.10;;;;;;5041319;28;20493;-70
2022/08/10 12:19:00;;;;;;;4.38;2.22;;;33.90;87.20;;;;;;5040536;28;20048;-69
2022/08/10 12:21:35;;;;;;;5.22;2.30;;;33.80;88.20;;;;;;5036884;28;20041;-69
2022/08/10 12:24:06;;;;;;;4.50;2.40;;;33.70;89.40;;;;;;5042609;28;20447;-70
2022/08/10 12:26:41;;;;;;;4.95;2.10;;;33.60;87.30;;;;;;5039058;28;20507;-70
2022/08/10 12:29:13;;;;;;;4.88;2.13;;;33.60;87.20;;;;;;5042506;28;20044;-70
2022/08/10 12:31:50;;;;;;;4.75;2.28;;;33.50;86.80;;;;;;5040662;28;20041;-70
2022/08/10 12:34:29;;;;;;;4.53;1.83;;;33.40;88.70;;;;;;5042802;28;20468;-70
2022/08/10 12:37:16;;;;;;;3.20;2.00;;;33.50;87.90;;;;;;5037757;28;20083;-69
2022/08/10 12:40:16;;;;;;;3.65;2.33;;;33.60;86.00;;;;;;5039448;28;20041;-69
2022/08/10 12:42:57;;;;;;;4.20;1.73;;;33.40;86.40;;;;;;5041610;28;20052;-70
2022/08/10 12:45:48;;;;;;;4.25;1.92;;;33.20;87.70;;;;;;5037188;28;20053;-70
2022/08/10 12:48:23;;;;;;;3.47;1.98;;;33.30;87.80;;;;;;5039218;28;20390;-70
2022/08/10 12:50:56;;;;;;;3.50;1.80;;;33.10;87.00;;;;;;5037144;28;20425;-69
2022/08/10 12:54:00;;;;;;;3.90;1.70;;;33.00;87.50;;;;;;5035851;28;20118;-69
2022/08/10 12:56:28;;;;;;;3.20;1.80;;;32.80;86.60;;;;;;5033998;28;20128;-70
2022/08/10 12:58:55;;;;;;;3.47;1.80;;;32.60;87.60;;;;;;5041973;28;20140;-70
2022/08/10 13:01:30;;;;;;;3.17;1.70;;;32.40;87.20;;;;;;5039686;28;20179;-70
2022/08/10 13:04:05;;;;;;;5.25;1.80;;;32.30;85.50;;;;;;5043152;28;20041;-70
2022/08/10 13:06:32;;;;;;;3.13;1.40;;;32.10;87.50;;;;;;5040228;28;20056;-69
2022/08/10 13:09:07;;;;;;;3.60;1.70;;;32.10;87.70;;;;;;5041886;28;20044;-69
2022/08/10 13:11:37;;;;;;;4.50;2.25;;;32.10;87.20;;;;;;5040074;28;20485;-70
2022/08/10 13:14:20;;;;;;;4.10;1.88;;;32.00;87.20;;;;;;5041077;28;20387;-70
2022/08/10 13:16:47;;;;;;;3.08;1.65;;;31.90;87.70;;;;;;5035539;28;20033;-69
2022/08/10 13:19:16;;;;;;;4.93;2.03;;;31.90;87.40;;;;;;5043220;28;20040;-70
2022/08/10 13:21:42;;;;;;;4.38;2.00;;;31.90;87.70;;;;;;5035720;28;20049;-69